createdAt,value
2023-05-19T00:00:37.331Z,9.28
2023-05-19T00:03:21.999Z,9.39
2023-05-19T00:05:54.104Z,9.41
2023-05-19T00:08:24.801Z,9.20
2023-05-19T00:11:02.926Z,8.98
2023-05-19T00:13:31.465Z,8.83
2023-05-19T00:16:00.240Z,8.73
2023-05-19T00:18:29.988Z,8.64
2023-05-19T00:21:02.539Z,8.58
2023-05-19T00:23:35.713Z,8.52
2023-05-19T00:26:08.597Z,8.47
2023-05-19T00:28:36.853Z,8.41
2023-05-19T00:31:07.664Z,8.37
2023-05-19T00:33:39.203Z,8.32
2023-05-19T00:36:16.311Z,8.32
2023-05-19T00:38:47.686Z,8.35
2023-05-19T00:41:17.984Z,8.39
2023-05-19T00:43:46.705Z,8.45
2023-05-19T00:46:19.759Z,8.50
2023-05-19T00:48:53.227Z,8.44
2023-05-19T00:51:26.898Z,8.38
2023-05-19T00:53:56.850Z,8.32
2023-05-19T00:56:27.973Z,8.27
2023-05-19T00:59:06.652Z,8.28
2023-05-19T01:01:39.750Z,8.30
2023-05-19T01:04:17.391Z,8.27
2023-05-19T01:06:55.001Z,8.23
2023-05-19T01:09:30.300Z,8.22
2023-05-19T01:12:02.892Z,8.20
2023-05-19T01:14:34.929Z,8.19
2023-05-19T01:17:23.464Z,8.23
2023-05-19T01:20:02.641Z,8.30
2023-05-19T01:22:43.108Z,8.35
2023-05-19T01:25:36.964Z,8.40
2023-05-19T01:28:42.265Z,8.44
2023-05-19T01:31:15.617Z,8.42
2023-05-19T01:33:49.260Z,8.41
2023-05-19T01:36:27.458Z,8.38
2023-05-19T01:39:04.914Z,8.32
2023-05-19T01:41:40.396Z,8.26
2023-05-19T01:44:10.131Z,8.14
2023-05-19T01:46:40.432Z,8.01
2023-05-19T01:49:09.640Z,7.87
2023-05-19T01:51:40.912Z,7.76
2023-05-19T01:54:11.178Z,7.64
2023-05-19T01:57:02.649Z,7.47
2023-05-19T02:00:08.379Z,7.38
2023-05-19T02:03:04.955Z,7.29
2023-05-19T02:05:59.667Z,7.26
2023-05-19T02:08:44.545Z,7.20
2023-05-19T02:11:49.754Z,7.15
2023-05-19T02:14:54.159Z,7.11
2023-05-19T02:17:29.557Z,7.06
2023-05-19T02:20:04.938Z,7.02
2023-05-19T02:22:37.879Z,7.03
2023-05-19T02:25:10.031Z,7.02
2023-05-19T02:27:39.813Z,6.97
2023-05-19T02:30:48.800Z,6.92
2023-05-19T02:33:22.635Z,6.90
2023-05-19T02:35:57.434Z,6.86
2023-05-19T02:38:29.051Z,6.83
2023-05-19T02:40:57.435Z,6.82
2023-05-19T02:43:25.992Z,6.83
2023-05-19T02:45:57.160Z,6.88
2023-05-19T02:48:25.501Z,6.96
2023-05-19T02:50:53.662Z,7.04
2023-05-19T02:53:22.040Z,7.11
2023-05-19T02:55:57.813Z,7.14
2023-05-19T02:58:26.034Z,7.16
2023-05-19T03:01:07.491Z,7.16
2023-05-19T03:03:36.336Z,7.12
2023-05-19T03:06:08.889Z,7.05
2023-05-19T03:08:37.990Z,6.96
2023-05-19T03:11:25.792Z,6.92
2023-05-19T03:13:57.578Z,6.86
2023-05-19T03:16:37.197Z,6.83
2023-05-19T03:19:14.714Z,6.83
2023-05-19T03:21:48.005Z,6.86
2023-05-19T03:24:19.346Z,6.93
2023-05-19T03:26:48.047Z,7.01
2023-05-19T03:29:16.742Z,7.12
2023-05-19T03:32:01.909Z,7.22
2023-05-19T03:34:33.023Z,7.32
2023-05-19T03:37:01.389Z,7.40
2023-05-19T03:39:30.009Z,7.45
2023-05-19T03:41:58.440Z,7.50
2023-05-19T03:44:26.862Z,7.55
2023-05-19T03:46:55.719Z,7.58
2023-05-19T03:49:29.430Z,7.63
2023-05-19T03:52:10.225Z,7.69
2023-05-19T03:54:58.995Z,7.74
2023-05-19T03:57:29.623Z,7.76
2023-05-19T03:59:57.786Z,7.78
2023-05-19T04:02:26.198Z,7.78
2023-05-19T04:05:30.786Z,7.76
2023-05-19T04:08:00.991Z,7.70
2023-05-19T04:10:47.423Z,7.64
2023-05-19T04:13:31.848Z,7.61
2023-05-19T04:16:03.677Z,7.59
2023-05-19T04:18:35.314Z,7.60
2023-05-19T04:21:05.105Z,7.60
2023-05-19T04:23:38.838Z,7.59
2023-05-19T04:26:12.461Z,7.58
2023-05-19T04:29:15.137Z,7.58
2023-05-19T04:31:53.333Z,7.57
2023-05-19T04:34:24.299Z,7.55
2023-05-19T04:37:04.945Z,7.57
2023-05-19T04:39:36.665Z,7.58
2023-05-19T04:42:05.297Z,7.59
2023-05-19T04:44:59.625Z,7.58
2023-05-19T04:47:35.129Z,7.64
2023-05-19T04:50:12.141Z,7.68
2023-05-19T04:52:55.992Z,7.74
2023-05-19T04:55:42.562Z,7.82
2023-05-19T04:58:48.650Z,7.92
2023-05-19T05:01:27.547Z,7.99
2023-05-19T05:04:03.196Z,8.04
2023-05-19T05:06:38.839Z,8.08
2023-05-19T05:09:12.648Z,8.10
2023-05-19T05:11:44.784Z,8.14
2023-05-19T05:14:13.731Z,8.13
2023-05-19T05:17:11.423Z,8.15
2023-05-19T05:19:55.849Z,8.19
2023-05-19T05:23:10.128Z,8.24
2023-05-19T05:26:12.960Z,8.31
2023-05-19T05:29:15.029Z,8.36
2023-05-19T05:32:25.973Z,8.40
2023-05-19T05:35:07.886Z,8.42
2023-05-19T05:38:18.617Z,8.43
2023-05-19T05:40:58.158Z,8.50
2023-05-19T05:43:32.818Z,8.56
2023-05-19T05:46:43.333Z,8.65
2023-05-19T05:50:07.917Z,8.68
2023-05-19T05:52:44.000Z,8.69
2023-05-19T05:55:17.828Z,8.75
2023-05-19T05:58:05.864Z,8.81
2023-05-19T06:00:37.009Z,8.87
2023-05-19T06:03:06.051Z,8.97
2023-05-19T06:05:40.573Z,9.09
2023-05-19T06:08:09.635Z,9.19
2023-05-19T06:10:59.031Z,9.29
2023-05-19T06:13:27.499Z,9.35
2023-05-19T06:15:56.007Z,9.43
2023-05-19T06:18:25.704Z,9.53
2023-05-19T06:20:54.288Z,9.66
2023-05-19T06:23:31.416Z,9.80
2023-05-19T06:25:59.767Z,9.91
2023-05-19T06:28:31.951Z,10.00
2023-05-19T06:31:06.170Z,10.12
2023-05-19T06:33:35.402Z,10.28
2023-05-19T06:36:04.162Z,10.45
2023-05-19T06:38:32.605Z,10.58
2023-05-19T06:41:01.154Z,10.66
2023-05-19T06:43:30.430Z,10.75
2023-05-19T06:46:02.225Z,10.85
2023-05-19T06:48:31.235Z,10.95
2023-05-19T06:51:02.939Z,11.02
2023-05-19T06:53:35.419Z,11.10
2023-05-19T06:56:07.025Z,11.18
2023-05-19T06:58:35.317Z,11.17
2023-05-19T07:01:03.677Z,11.16
2023-05-19T07:03:32.650Z,11.18
2023-05-19T07:06:02.159Z,11.25
2023-05-19T07:08:31.260Z,11.25
2023-05-19T07:10:59.720Z,11.30
2023-05-19T07:13:27.935Z,11.34
2023-05-19T07:15:56.634Z,11.40
2023-05-19T07:18:25.941Z,11.46
2023-05-19T07:20:54.270Z,11.56
2023-05-19T07:23:22.438Z,11.74
2023-05-19T07:25:56.691Z,11.88
2023-05-19T07:28:25.343Z,11.97
2023-05-19T07:30:53.512Z,12.11
2023-05-19T07:33:22.237Z,12.32
2023-05-19T07:35:54.426Z,12.53
2023-05-19T07:38:24.779Z,12.82
2023-05-19T07:40:56.461Z,13.09
2023-05-19T07:43:27.998Z,13.38
2023-05-19T07:45:57.098Z,13.65
2023-05-19T07:48:32.876Z,13.85
2023-05-19T07:51:02.332Z,13.89
2023-05-19T07:53:31.269Z,13.76
2023-05-19T07:56:00.022Z,13.75
2023-05-19T07:58:36.577Z,13.59
2023-05-19T08:01:05.235Z,13.69
2023-05-19T08:03:34.199Z,13.88
2023-05-19T08:06:03.427Z,14.00
2023-05-19T08:08:40.478Z,14.03
2023-05-19T08:11:08.961Z,14.13
2023-05-19T08:13:37.471Z,14.11
2023-05-19T08:16:08.187Z,14.01
2023-05-19T08:18:36.698Z,14.00
2023-05-19T08:21:05.659Z,13.93
2023-05-19T08:23:34.082Z,14.01
2023-05-19T08:26:02.609Z,14.03
2023-05-19T08:28:31.109Z,14.12
2023-05-19T08:31:03.035Z,14.09
2023-05-19T08:33:31.572Z,14.15
2023-05-19T08:36:02.508Z,14.28
2023-05-19T08:38:31.650Z,14.40
2023-05-19T08:41:00.176Z,14.56
2023-05-19T08:43:29.129Z,14.62
2023-05-19T08:46:00.266Z,14.53
2023-05-19T08:48:33.267Z,14.51
2023-05-19T08:51:01.521Z,14.40
2023-05-19T08:53:40.804Z,14.40
2023-05-19T08:56:12.494Z,14.51
2023-05-19T08:58:44.067Z,14.59
2023-05-19T09:01:29.551Z,14.62
2023-05-19T09:03:58.888Z,14.67
2023-05-19T09:06:36.845Z,14.65
2023-05-19T09:09:12.876Z,14.73
2023-05-19T09:11:41.343Z,14.85
2023-05-19T09:14:09.790Z,14.78
2023-05-19T09:16:38.574Z,14.70
2023-05-19T09:19:15.634Z,14.77
2023-05-19T09:21:45.950Z,14.82
2023-05-19T09:24:16.738Z,14.88
2023-05-19T09:26:45.038Z,14.82
2023-05-19T09:29:18.558Z,14.75
2023-05-19T09:32:06.468Z,14.78
2023-05-19T09:34:41.912Z,14.74
2023-05-19T09:37:13.353Z,14.70
2023-05-19T09:39:49.540Z,14.57
2023-05-19T09:42:30.303Z,14.45
2023-05-19T09:45:05.357Z,14.26
2023-05-19T09:48:00.627Z,14.24
2023-05-19T09:50:48.466Z,14.19
2023-05-19T09:53:18.796Z,14.27
2023-05-19T09:55:48.021Z,14.31
2023-05-19T09:58:44.417Z,14.16
2023-05-19T10:01:23.379Z,14.11
2023-05-19T10:03:54.025Z,14.07
2023-05-19T10:06:26.422Z,13.98
2023-05-19T10:08:55.346Z,13.89
2023-05-19T10:11:28.303Z,13.80
2023-05-19T10:13:59.780Z,13.73
2023-05-19T10:16:40.404Z,13.65
2023-05-19T10:19:10.254Z,13.62
2023-05-19T10:21:39.096Z,13.56
2023-05-19T10:24:15.083Z,13.53
2023-05-19T10:26:47.748Z,13.60
2023-05-19T10:29:22.077Z,13.75
2023-05-19T10:31:53.210Z,13.80
2023-05-19T10:35:04.715Z,13.94
2023-05-19T10:38:13.255Z,14.11
2023-05-19T10:40:51.331Z,14.26
2023-05-19T10:44:01.349Z,14.07
2023-05-19T10:46:33.901Z,13.85
2023-05-19T10:49:02.461Z,13.68
2023-05-19T10:51:32.003Z,13.57
2023-05-19T10:54:11.031Z,13.51
2023-05-19T10:56:50.110Z,13.53
2023-05-19T10:59:40.122Z,13.60
2023-05-19T11:02:09.522Z,13.70
2023-05-19T11:04:51.859Z,13.83
2023-05-19T11:07:22.650Z,13.97
2023-05-19T11:09:54.748Z,14.05
2023-05-19T11:12:25.117Z,14.10
2023-05-19T11:14:55.063Z,14.08
2023-05-19T11:17:25.953Z,14.09
2023-05-19T11:19:56.204Z,14.16
2023-05-19T11:22:26.427Z,14.17
2023-05-19T11:24:55.924Z,14.20
2023-05-19T11:27:38.633Z,14.18
2023-05-19T11:30:08.345Z,13.99
2023-05-19T11:32:47.515Z,13.95
2023-05-19T11:35:19.261Z,14.00
2023-05-19T11:37:49.293Z,14.02
2023-05-19T11:40:18.753Z,14.03
2023-05-19T11:42:57.206Z,14.04
2023-05-19T11:45:26.671Z,14.06
2023-05-19T11:48:02.562Z,14.09
2023-05-19T11:50:37.303Z,14.09
2023-05-19T11:53:05.785Z,14.00
2023-05-19T11:55:48.439Z,13.93
2023-05-19T11:58:28.066Z,13.91
2023-05-19T12:00:56.776Z,13.87
2023-05-19T12:03:28.954Z,13.80
2023-05-19T12:05:57.545Z,13.72
2023-05-19T12:08:27.666Z,13.64
2023-05-19T12:10:56.967Z,13.55
2023-05-19T12:13:25.755Z,13.50
2023-05-19T12:15:54.114Z,13.51
2023-05-19T12:18:22.773Z,13.63
2023-05-19T12:20:51.262Z,13.83
2023-05-19T12:23:20.366Z,13.99
2023-05-19T12:25:49.682Z,14.11
2023-05-19T12:28:19.958Z,14.25
2023-05-19T12:30:52.404Z,14.24
2023-05-19T12:33:24.533Z,14.33
2023-05-19T12:35:55.590Z,14.45
2023-05-19T12:38:24.038Z,14.53
2023-05-19T12:40:55.359Z,14.54
2023-05-19T12:43:24.646Z,14.43
2023-05-19T12:45:55.112Z,14.37
2023-05-19T12:48:23.956Z,14.36
2023-05-19T12:50:55.965Z,14.37
2023-05-19T12:53:27.944Z,14.25
2023-05-19T12:55:56.314Z,14.29
2023-05-19T12:58:34.103Z,14.39
2023-05-19T13:01:02.615Z,14.42
2023-05-19T13:03:31.188Z,14.48
2023-05-19T13:06:00.142Z,14.45
2023-05-19T13:08:31.622Z,14.39
2023-05-19T13:10:59.806Z,14.29
2023-05-19T13:13:28.516Z,14.09
2023-05-19T13:15:56.887Z,14.00
2023-05-19T13:18:27.678Z,13.89
2023-05-19T13:21:05.896Z,13.93
2023-05-19T13:23:37.523Z,14.03
2023-05-19T13:26:06.681Z,14.11
2023-05-19T13:28:35.153Z,14.20
2023-05-19T13:31:03.507Z,14.24
2023-05-19T13:33:35.877Z,14.16
2023-05-19T13:36:04.683Z,14.08
2023-05-19T13:38:35.859Z,14.06
2023-05-19T13:41:04.291Z,14.06
2023-05-19T13:43:39.230Z,14.11
2023-05-19T13:46:10.604Z,14.10
2023-05-19T13:48:39.030Z,14.15
2023-05-19T13:51:07.521Z,14.16
2023-05-19T13:53:35.856Z,14.18
2023-05-19T13:56:05.228Z,14.15
2023-05-19T13:58:34.493Z,14.06
2023-05-19T14:01:03.287Z,13.93
2023-05-19T14:03:41.436Z,13.90
2023-05-19T14:06:10.535Z,13.85
2023-05-19T14:08:46.279Z,13.79
2023-05-19T14:11:21.828Z,13.69
2023-05-19T14:13:57.828Z,13.64
2023-05-19T14:16:38.203Z,13.58
2023-05-19T14:19:06.876Z,13.50
2023-05-19T14:21:36.626Z,13.47
2023-05-19T14:24:05.223Z,13.46
2023-05-19T14:26:33.966Z,13.40
2023-05-19T14:29:03.094Z,13.41
2023-05-19T14:31:33.256Z,13.49
2023-05-19T14:34:05.384Z,13.52
2023-05-19T14:36:35.421Z,13.52
2023-05-19T14:39:03.960Z,13.52
2023-05-19T14:41:32.289Z,13.51
2023-05-19T14:44:00.671Z,13.47
2023-05-19T14:46:29.467Z,13.40
2023-05-19T14:48:57.742Z,13.33
2023-05-19T14:51:26.077Z,13.31
2023-05-19T14:53:54.722Z,13.32
2023-05-19T14:56:23.524Z,13.30
2023-05-19T14:58:51.974Z,13.30
2023-05-19T15:01:20.500Z,13.28
2023-05-19T15:03:48.909Z,13.29
2023-05-19T15:06:17.379Z,13.29
2023-05-19T15:08:46.070Z,13.29
2023-05-19T15:11:14.855Z,13.27
2023-05-19T15:13:43.220Z,13.21
2023-05-19T15:18:43.640Z,13.05
2023-05-19T15:21:12.263Z,13.02
2023-05-19T15:23:40.701Z,12.97
2023-05-19T15:26:09.131Z,12.92
2023-05-19T15:28:37.436Z,12.90
2023-05-19T15:31:05.937Z,12.86
2023-05-19T15:33:34.161Z,12.82
2023-05-19T15:36:02.698Z,12.73
2023-05-19T15:38:36.520Z,12.61
2023-05-19T15:41:08.931Z,12.57
2023-05-19T15:43:41.578Z,12.57
2023-05-19T15:46:11.434Z,12.54
2023-05-19T15:48:40.456Z,12.54
2023-05-19T15:51:08.747Z,12.54
2023-05-19T15:53:38.156Z,12.55
2023-05-19T15:56:06.911Z,12.54
2023-05-19T15:58:43.646Z,12.57
2023-05-19T16:01:12.215Z,12.56
2023-05-19T16:03:40.701Z,12.54
2023-05-19T16:06:09.198Z,12.49
2023-05-19T16:08:38.328Z,12.46
2023-05-19T16:11:07.007Z,12.44
2023-05-19T16:13:35.354Z,12.45
2023-05-19T16:16:03.897Z,12.45
2023-05-19T16:18:32.707Z,12.43
2023-05-19T16:21:01.735Z,12.42
2023-05-19T16:23:30.808Z,12.43
2023-05-19T16:25:59.137Z,12.42
2023-05-19T16:28:28.293Z,12.41
2023-05-19T16:31:00.436Z,12.42
2023-05-19T16:33:30.215Z,12.43
2023-05-19T16:36:00.107Z,12.42
2023-05-19T16:38:28.474Z,12.43
2023-05-19T16:40:56.865Z,12.43
2023-05-19T16:43:25.120Z,12.43
2023-05-19T16:45:53.505Z,12.40
2023-05-19T16:48:21.911Z,12.37
2023-05-19T16:50:50.736Z,12.36
2023-05-19T16:53:19.370Z,12.36
2023-05-19T16:55:47.657Z,12.36
2023-05-19T16:58:16.477Z,12.33
2023-05-19T17:00:44.821Z,12.32
2023-05-19T17:03:13.267Z,12.31
2023-05-19T17:05:43.605Z,12.31
2023-05-19T17:08:12.875Z,12.28
2023-05-19T17:10:41.317Z,12.24
2023-05-19T17:13:11.393Z,12.18
2023-05-19T17:15:42.272Z,12.18
2023-05-19T17:18:45.025Z,12.18
2023-05-19T17:21:13.676Z,12.19
2023-05-19T17:24:14.979Z,12.18
2023-05-19T17:26:43.262Z,12.17
2023-05-19T17:29:14.876Z,12.12
2023-05-19T17:32:12.594Z,12.08
2023-05-19T17:34:40.971Z,12.01
2023-05-19T17:37:23.678Z,11.95
2023-05-19T17:39:54.193Z,11.88
2023-05-19T17:42:22.553Z,11.85
2023-05-19T17:44:51.138Z,11.83
2023-05-19T17:47:19.435Z,11.80
2023-05-19T17:49:48.092Z,11.77
2023-05-19T17:52:26.065Z,11.76
2023-05-19T17:54:54.792Z,11.76
2023-05-19T17:57:26.629Z,11.73
2023-05-19T17:59:55.506Z,11.71
2023-05-19T18:02:24.649Z,11.71
2023-05-19T18:04:53.947Z,11.69
2023-05-19T18:07:42.649Z,11.66
2023-05-19T18:10:14.346Z,11.63
2023-05-19T18:12:45.718Z,11.62
2023-05-19T18:15:25.791Z,11.62
2023-05-19T18:18:51.864Z,11.61
2023-05-19T18:22:07.144Z,11.57
2023-05-19T18:24:35.483Z,11.57
2023-05-19T18:27:03.928Z,11.52
2023-05-19T18:29:34.408Z,11.49
2023-05-19T18:32:03.498Z,11.45
2023-05-19T18:34:32.322Z,11.44
2023-05-19T18:37:03.655Z,11.43
2023-05-19T18:39:32.288Z,11.40
2023-05-19T18:42:12.438Z,11.38
2023-05-19T18:44:43.533Z,11.35
2023-05-19T18:47:12.302Z,11.31
2023-05-19T18:49:44.045Z,11.31
2023-05-19T18:52:33.306Z,11.30
2023-05-19T18:55:11.421Z,11.29
2023-05-19T18:57:40.235Z,11.29
2023-05-19T19:00:09.285Z,11.28
2023-05-19T19:02:40.191Z,11.26
2023-05-19T19:05:11.938Z,11.24
2023-05-19T19:07:49.446Z,11.24
2023-05-19T19:10:18.920Z,11.24
2023-05-19T19:12:47.304Z,11.24
2023-05-19T19:15:16.011Z,11.21
2023-05-19T19:17:45.443Z,11.18
2023-05-19T19:20:14.334Z,11.17
2023-05-19T19:22:43.554Z,11.14
2023-05-19T19:25:15.025Z,11.12
2023-05-19T19:27:43.499Z,11.08
2023-05-19T19:30:12.495Z,11.06
2023-05-19T19:32:41.108Z,11.05
2023-05-19T19:35:10.175Z,11.06
2023-05-19T19:37:41.083Z,11.06
2023-05-19T19:40:10.766Z,11.06
2023-05-19T19:42:40.610Z,11.05
2023-05-19T19:45:09.756Z,11.06
2023-05-19T19:47:39.357Z,11.04
2023-05-19T19:50:11.789Z,11.03
2023-05-19T19:52:40.697Z,11.01
2023-05-19T19:55:12.749Z,11.02
2023-05-19T19:57:45.189Z,11.01
2023-05-19T20:00:15.258Z,11.00
2023-05-19T20:03:02.819Z,10.97
2023-05-19T20:05:38.369Z,10.93
2023-05-19T20:08:06.588Z,10.88
2023-05-19T20:10:43.394Z,10.83
2023-05-19T20:13:11.871Z,10.78
2023-05-19T20:15:40.908Z,10.76
2023-05-19T20:18:09.907Z,10.75
2023-05-19T20:20:39.245Z,10.75
2023-05-19T20:23:08.629Z,10.74
2023-05-19T20:25:54.785Z,10.74
2023-05-19T20:28:30.909Z,10.73
2023-05-19T20:30:59.340Z,10.70
2023-05-19T20:33:37.999Z,10.68
2023-05-19T20:36:11.158Z,10.69
2023-05-19T20:38:42.598Z,10.69
2023-05-19T20:41:11.189Z,10.70
2023-05-19T20:43:40.235Z,10.70
2023-05-19T20:46:08.884Z,10.69
2023-05-19T20:48:38.005Z,10.67
2023-05-19T20:51:14.289Z,10.66
2023-05-19T20:53:45.059Z,10.67
2023-05-19T20:56:14.251Z,10.67
2023-05-19T20:58:43.197Z,10.68
2023-05-19T21:01:12.362Z,10.68
2023-05-19T21:03:46.993Z,10.66
2023-05-19T21:06:21.201Z,10.66
2023-05-19T21:08:49.584Z,10.66
2023-05-19T21:11:18.040Z,10.65
2023-05-19T21:13:51.484Z,10.65
2023-05-19T21:16:21.050Z,10.65
2023-05-19T21:19:09.978Z,10.66
2023-05-19T21:21:42.971Z,10.65
2023-05-19T21:24:23.577Z,10.64
2023-05-19T21:26:52.299Z,10.63
2023-05-19T21:29:34.596Z,10.63
2023-05-19T21:32:03.010Z,10.61
2023-05-19T21:34:31.882Z,10.59
2023-05-19T21:37:02.997Z,10.58
2023-05-19T21:39:44.529Z,10.58
2023-05-19T21:42:12.889Z,10.56
2023-05-19T21:44:41.401Z,10.54
2023-05-19T21:47:10.033Z,10.53
2023-05-19T21:49:51.559Z,10.51
2023-05-19T21:52:23.738Z,10.51
2023-05-19T21:54:56.374Z,10.51
2023-05-19T21:57:46.338Z,10.53
2023-05-19T22:00:36.545Z,10.53
2023-05-19T22:03:05.465Z,10.51
2023-05-19T22:05:55.268Z,10.49
2023-05-19T22:08:32.590Z,10.51
2023-05-19T22:11:10.348Z,10.52
2023-05-19T22:13:41.377Z,10.52
2023-05-19T22:16:15.234Z,10.50
2023-05-19T22:18:49.052Z,10.48
2023-05-19T22:21:43.078Z,10.46
2023-05-19T22:24:11.604Z,10.46
2023-05-19T22:27:00.894Z,10.46
2023-05-19T22:29:48.346Z,10.44
2023-05-19T22:32:18.633Z,10.42
2023-05-19T22:34:52.866Z,10.42
2023-05-19T22:37:24.631Z,10.39
2023-05-19T22:40:36.408Z,10.37
2023-05-19T22:43:28.385Z,10.34
2023-05-19T22:46:09.408Z,10.34
2023-05-19T22:49:07.391Z,10.35
2023-05-19T22:51:56.148Z,10.35
2023-05-19T22:54:33.534Z,10.33
2023-05-19T22:57:03.519Z,10.30
2023-05-19T22:59:41.628Z,10.31
2023-05-19T23:02:13.548Z,10.31
2023-05-19T23:04:51.800Z,10.30
2023-05-19T23:07:23.675Z,10.30
2023-05-19T23:10:01.586Z,10.32
2023-05-19T23:12:30.312Z,10.32
2023-05-19T23:14:58.679Z,10.32
2023-05-19T23:17:36.326Z,10.31
2023-05-19T23:20:14.084Z,10.31
2023-05-19T23:22:43.651Z,10.31
2023-05-19T23:25:11.907Z,10.29
2023-05-19T23:28:15.119Z,10.30
2023-05-19T23:31:07.011Z,10.25
2023-05-19T23:33:35.515Z,10.25
2023-05-19T23:36:10.813Z,10.24
2023-05-19T23:38:39.759Z,10.23
2023-05-19T23:41:08.478Z,10.22
2023-05-19T23:43:38.096Z,10.20
2023-05-19T23:46:07.919Z,10.20
2023-05-19T23:48:59.208Z,10.20
2023-05-19T23:51:32.626Z,10.21
2023-05-19T23:54:14.585Z,10.23
2023-05-19T23:56:56.523Z,10.23
2023-05-19T23:59:25.539Z,10.24
